createdAt,value
2018-10-03T00:00:07.838Z,10.48
2018-10-03T00:00:20.265Z,10.48
2018-10-03T00:00:32.691Z,10.48
2018-10-03T00:00:45.085Z,10.48
2018-10-03T00:00:57.500Z,10.48
2018-10-03T00:01:09.916Z,10.48
2018-10-03T00:01:22.526Z,10.48
2018-10-03T00:01:34.926Z,10.48
2018-10-03T00:01:47.322Z,10.48
2018-10-03T00:01:59.715Z,10.48
2018-10-03T00:02:12.105Z,10.48
2018-10-03T00:02:24.509Z,10.48
2018-10-03T00:02:36.886Z,10.48
2018-10-03T00:02:49.272Z,10.48
2018-10-03T00:03:01.725Z,10.48
2018-10-03T00:03:14.130Z,10.48
2018-10-03T00:03:26.519Z,10.48
2018-10-03T00:03:38.893Z,10.48
2018-10-03T00:03:51.363Z,10.48
2018-10-03T00:04:03.898Z,10.48
2018-10-03T00:04:16.303Z,10.48
2018-10-03T00:04:28.685Z,10.48
2018-10-03T00:04:41.096Z,10.48
2018-10-03T00:04:53.477Z,10.48
2018-10-03T00:05:05.894Z,10.48
2018-10-03T00:05:18.285Z,10.48
2018-10-03T00:05:30.704Z,10.48
2018-10-03T00:05:43.098Z,10.48
2018-10-03T00:05:55.511Z,10.48
2018-10-03T00:06:08.150Z,10.48
2018-10-03T00:06:20.556Z,10.48
2018-10-03T00:06:32.956Z,10.48
2018-10-03T00:06:45.358Z,10.48
2018-10-03T00:06:57.749Z,10.48
2018-10-03T00:07:10.158Z,10.48
2018-10-03T00:07:22.564Z,10.48
2018-10-03T00:07:35.011Z,10.48
2018-10-03T00:07:47.408Z,10.48
2018-10-03T00:07:59.815Z,10.48
2018-10-03T00:08:12.207Z,10.48
2018-10-03T00:08:24.613Z,10.48
2018-10-03T00:08:37.119Z,10.48
2018-10-03T00:08:49.512Z,10.48
2018-10-03T00:09:01.916Z,10.48
2018-10-03T00:09:14.314Z,10.48
2018-10-03T00:09:26.701Z,10.48
2018-10-03T00:09:39.095Z,10.48
2018-10-03T00:09:51.478Z,17.02
2018-10-03T00:10:03.888Z,17.02
2018-10-03T00:10:16.295Z,17.02
2018-10-03T00:10:28.796Z,17.02
2018-10-03T00:10:41.209Z,17.02
2018-10-03T00:10:53.674Z,17.02
2018-10-03T00:11:06.150Z,17.02
2018-10-03T00:11:18.569Z,17.02
2018-10-03T00:11:30.989Z,17.02
2018-10-03T00:11:43.399Z,17.02
2018-10-03T00:11:55.791Z,17.02
2018-10-03T00:12:08.195Z,17.02
2018-10-03T00:12:20.599Z,17.02
2018-10-03T00:12:32.996Z,17.02
2018-10-03T00:12:45.507Z,17.02
2018-10-03T00:12:57.901Z,17.02
2018-10-03T00:13:10.291Z,17.02
2018-10-03T00:13:22.688Z,17.02
2018-10-03T00:13:35.084Z,17.02
2018-10-03T00:13:47.477Z,17.02
2018-10-03T00:13:59.876Z,17.02
2018-10-03T00:14:12.292Z,17.02
2018-10-03T00:14:24.737Z,17.02
2018-10-03T00:14:37.259Z,17.02
2018-10-03T00:14:49.686Z,17.02
2018-10-03T00:15:02.128Z,17.02
2018-10-03T00:15:14.526Z,17.02
2018-10-03T00:15:26.949Z,17.02
2018-10-03T00:15:39.372Z,17.02
2018-10-03T00:15:52.021Z,17.02
2018-10-03T00:16:04.409Z,17.02
2018-10-03T00:16:17.083Z,17.02
2018-10-03T00:16:29.583Z,17.02
2018-10-03T00:16:41.987Z,17.02
2018-10-03T00:16:54.378Z,17.02
2018-10-03T00:17:06.789Z,17.02
2018-10-03T00:17:19.169Z,17.02
2018-10-03T00:17:31.566Z,17.02
2018-10-03T00:17:43.963Z,17.02
2018-10-03T00:17:56.352Z,17.02
2018-10-03T00:18:08.751Z,17.02
2018-10-03T00:18:21.155Z,17.02
2018-10-03T00:18:33.562Z,17.02
2018-10-03T00:18:45.982Z,17.02
2018-10-03T00:18:58.395Z,17.02
2018-10-03T00:19:10.818Z,17.02
2018-10-03T00:19:23.219Z,17.02
2018-10-03T00:19:35.610Z,17.02
2018-10-03T00:19:47.986Z,17.02
2018-10-03T00:20:00.440Z,12.94
2018-10-03T00:20:12.835Z,12.94
2018-10-03T00:20:25.243Z,12.94
2018-10-03T00:20:37.628Z,12.94
2018-10-03T00:20:50.071Z,12.94
2018-10-03T00:21:02.480Z,12.94
2018-10-03T00:21:15.055Z,12.94
2018-10-03T00:21:27.458Z,12.94
2018-10-03T00:21:39.862Z,12.94
2018-10-03T00:21:52.278Z,12.94
2018-10-03T00:22:04.886Z,12.94
2018-10-03T00:22:17.270Z,12.94
2018-10-03T00:22:29.652Z,12.94
2018-10-03T00:22:42.030Z,12.94
2018-10-03T00:22:54.428Z,12.94
2018-10-03T00:23:06.835Z,12.94
2018-10-03T00:23:19.682Z,12.94
2018-10-03T00:23:33.385Z,12.94
2018-10-03T00:23:45.864Z,12.94
2018-10-03T00:23:58.369Z,12.94
2018-10-03T00:24:10.835Z,12.94
2018-10-03T00:24:23.233Z,12.94
2018-10-03T00:24:35.640Z,12.94
2018-10-03T00:24:48.214Z,12.94
2018-10-03T00:25:00.629Z,12.94
2018-10-03T00:25:13.058Z,12.94
2018-10-03T00:25:25.463Z,12.94
2018-10-03T00:25:37.858Z,12.94
2018-10-03T00:25:50.271Z,12.94
2018-10-03T00:26:02.691Z,12.94
2018-10-03T00:26:15.122Z,12.94
2018-10-03T00:26:27.520Z,12.94
2018-10-03T00:26:39.923Z,12.94
2018-10-03T00:26:52.308Z,12.94
2018-10-03T00:27:04.736Z,12.94
2018-10-03T00:27:17.128Z,12.94
2018-10-03T00:27:29.539Z,12.94
2018-10-03T00:27:41.928Z,12.94
2018-10-03T00:27:54.344Z,12.94
2018-10-03T00:28:06.757Z,12.94
2018-10-03T00:28:19.167Z,12.94
2018-10-03T00:28:31.568Z,12.94
2018-10-03T00:28:43.955Z,12.94
2018-10-03T00:28:56.331Z,12.94
2018-10-03T00:29:08.731Z,12.94
2018-10-03T00:29:21.134Z,12.94
2018-10-03T00:29:33.550Z,12.94
2018-10-03T00:29:45.941Z,12.94
2018-10-03T00:29:58.325Z,11.29
2018-10-03T00:30:10.753Z,11.29
2018-10-03T00:30:23.398Z,11.29
2018-10-03T00:30:35.818Z,11.29
2018-10-03T00:30:48.241Z,11.29
2018-10-03T00:31:00.657Z,11.29
2018-10-03T00:31:13.167Z,11.29
2018-10-03T00:31:25.631Z,11.29
2018-10-03T00:31:38.035Z,11.29
2018-10-03T00:31:50.488Z,11.29
2018-10-03T00:32:02.885Z,11.29
2018-10-03T00:32:15.269Z,11.29
2018-10-03T00:32:27.696Z,11.29
2018-10-03T00:32:40.133Z,11.29
2018-10-03T00:32:52.533Z,11.29
2018-10-03T00:33:04.937Z,11.29
2018-10-03T00:33:17.335Z,11.29
2018-10-03T00:33:29.767Z,11.29
2018-10-03T00:33:42.162Z,11.29
2018-10-03T00:33:54.575Z,11.29
2018-10-03T00:34:07.085Z,11.29
2018-10-03T00:34:19.494Z,11.29
2018-10-03T00:34:31.936Z,11.29
2018-10-03T00:34:44.362Z,11.29
2018-10-03T00:34:56.782Z,11.29
2018-10-03T00:35:09.188Z,11.29
2018-10-03T00:35:21.582Z,11.29
2018-10-03T00:35:34.071Z,11.29
2018-10-03T00:35:46.458Z,11.29
2018-10-03T00:35:58.884Z,11.29
2018-10-03T00:36:11.296Z,11.29
2018-10-03T00:36:23.691Z,11.29
2018-10-03T00:36:36.278Z,11.29
2018-10-03T00:36:48.811Z,11.29
2018-10-03T00:37:01.221Z,11.29
2018-10-03T00:37:13.732Z,11.29
2018-10-03T00:37:26.163Z,11.29
2018-10-03T00:37:38.577Z,11.29
2018-10-03T00:37:50.991Z,11.29
2018-10-03T00:38:03.408Z,11.29
2018-10-03T00:38:15.800Z,11.29
2018-10-03T00:38:28.321Z,11.29
2018-10-03T00:38:40.752Z,11.29
2018-10-03T00:38:53.152Z,11.29
2018-10-03T00:39:05.564Z,11.29
2018-10-03T00:39:17.973Z,11.29
2018-10-03T00:39:30.427Z,11.29
2018-10-03T00:39:42.834Z,11.29
2018-10-03T00:39:55.346Z,16.41
2018-10-03T00:40:07.784Z,16.41
2018-10-03T00:40:20.188Z,16.41
2018-10-03T00:40:32.587Z,16.41
2018-10-03T00:40:45.022Z,16.41
2018-10-03T00:40:57.422Z,16.41
2018-10-03T00:41:09.833Z,16.41
2018-10-03T00:41:22.239Z,16.41
2018-10-03T00:41:34.659Z,16.41
2018-10-03T00:41:47.068Z,16.41
2018-10-03T00:41:59.475Z,16.41
2018-10-03T00:42:11.867Z,16.41
2018-10-03T00:42:24.316Z,16.41
2018-10-03T00:42:37.160Z,16.41
2018-10-03T00:42:49.565Z,16.41
2018-10-03T00:43:01.960Z,16.41
2018-10-03T00:43:14.354Z,16.41
2018-10-03T00:43:26.742Z,16.41
2018-10-03T00:43:39.128Z,16.41
2018-10-03T00:43:51.602Z,16.41
2018-10-03T00:44:03.986Z,16.41
2018-10-03T00:44:16.381Z,16.41
2018-10-03T00:44:28.799Z,16.41
2018-10-03T00:44:41.192Z,16.41
2018-10-03T00:44:53.582Z,16.41
2018-10-03T00:45:06.158Z,16.41
2018-10-03T00:45:18.546Z,16.41
2018-10-03T00:45:30.948Z,16.41
2018-10-03T00:45:43.354Z,16.41
2018-10-03T00:45:55.755Z,16.41
2018-10-03T00:46:08.182Z,16.41
2018-10-03T00:46:20.584Z,16.41
2018-10-03T00:46:32.996Z,16.41
2018-10-03T00:46:45.379Z,16.41
2018-10-03T00:46:57.788Z,16.41
2018-10-03T00:47:10.198Z,16.41
2018-10-03T00:47:22.602Z,16.41
2018-10-03T00:47:35.041Z,16.41
2018-10-03T00:47:47.432Z,16.41
2018-10-03T00:47:59.873Z,16.41
2018-10-03T00:48:12.274Z,16.41
2018-10-03T00:48:24.695Z,16.41
2018-10-03T00:48:37.100Z,16.41
2018-10-03T00:48:49.575Z,16.41
2018-10-03T00:49:01.959Z,16.41
2018-10-03T00:49:14.349Z,16.41
2018-10-03T00:49:26.897Z,16.41
2018-10-03T00:49:39.288Z,16.41
2018-10-03T00:49:51.686Z,16.41
2018-10-03T00:50:04.120Z,13.7
2018-10-03T00:50:16.570Z,13.7
2018-10-03T00:50:28.979Z,13.7
2018-10-03T00:50:41.368Z,13.7
2018-10-03T00:50:53.910Z,13.7
2018-10-03T00:51:06.326Z,13.7
2018-10-03T00:51:18.718Z,13.7
2018-10-03T00:51:31.122Z,13.7
2018-10-03T00:51:43.527Z,13.7
2018-10-03T00:51:55.922Z,13.7
2018-10-03T00:52:08.348Z,13.7
2018-10-03T00:52:20.741Z,13.7
2018-10-03T00:52:33.651Z,13.7
2018-10-03T00:52:46.044Z,13.7
2018-10-03T00:52:58.436Z,13.7
2018-10-03T00:53:10.833Z,13.7
2018-10-03T00:53:23.214Z,13.7
2018-10-03T00:53:35.631Z,13.7
2018-10-03T00:53:48.020Z,13.7
2018-10-03T00:54:00.432Z,13.7
2018-10-03T00:54:12.860Z,13.7
2018-10-03T00:54:25.277Z,13.7
2018-10-03T00:54:37.677Z,13.7
2018-10-03T00:54:50.072Z,13.7
2018-10-03T00:55:02.465Z,13.7
2018-10-03T00:55:14.883Z,13.7
2018-10-03T00:55:27.285Z,13.7
2018-10-03T00:55:39.684Z,13.7
2018-10-03T00:55:52.089Z,13.7
2018-10-03T00:56:04.496Z,13.7
2018-10-03T00:56:16.894Z,13.7
2018-10-03T00:56:29.301Z,13.7
2018-10-03T00:56:41.691Z,13.7
2018-10-03T00:56:54.080Z,13.7
2018-10-03T00:57:06.484Z,13.7
2018-10-03T00:57:18.893Z,13.7
2018-10-03T00:57:31.514Z,13.7
2018-10-03T00:57:43.903Z,13.7
2018-10-03T00:57:56.309Z,13.7
2018-10-03T00:58:08.711Z,13.7
2018-10-03T00:58:21.121Z,13.7
2018-10-03T00:58:33.534Z,13.7
2018-10-03T00:58:45.926Z,13.7
2018-10-03T00:58:58.379Z,13.7
2018-10-03T00:59:10.798Z,13.7
2018-10-03T00:59:23.194Z,13.7
2018-10-03T00:59:35.736Z,13.7
2018-10-03T00:59:48.146Z,13.7
2018-10-03T01:00:00.538Z,18.9
2018-10-03T01:00:12.963Z,18.9
2018-10-03T01:00:25.553Z,18.9
2018-10-03T01:00:37.978Z,18.9
2018-10-03T01:00:50.376Z,18.9
2018-10-03T01:01:02.781Z,18.9
2018-10-03T01:01:15.197Z,18.9
2018-10-03T01:01:27.605Z,18.9
2018-10-03T01:01:40.017Z,18.9
2018-10-03T01:01:52.419Z,18.9
2018-10-03T01:02:04.842Z,18.9
2018-10-03T01:02:17.257Z,18.9
2018-10-03T01:02:29.664Z,18.9
2018-10-03T01:02:42.148Z,18.9
2018-10-03T01:02:54.559Z,18.9
2018-10-03T01:03:06.969Z,18.9
2018-10-03T01:03:19.366Z,18.9
2018-10-03T01:03:31.775Z,18.9
2018-10-03T01:03:44.198Z,18.9
2018-10-03T01:03:56.829Z,18.9
2018-10-03T01:04:09.249Z,18.9
2018-10-03T01:04:21.653Z,18.9
2018-10-03T01:04:34.060Z,18.9
2018-10-03T01:04:46.475Z,18.9
2018-10-03T01:04:58.871Z,18.9
2018-10-03T01:05:11.374Z,18.9
2018-10-03T01:05:23.766Z,18.9
2018-10-03T01:05:36.170Z,18.9
2018-10-03T01:05:48.585Z,18.9
2018-10-03T01:06:01.003Z,18.9
2018-10-03T01:06:13.532Z,18.9
2018-10-03T01:06:25.954Z,18.9
2018-10-03T01:06:38.339Z,18.9
2018-10-03T01:06:50.725Z,18.9
2018-10-03T01:07:03.125Z,18.9
2018-10-03T01:07:15.543Z,18.9
2018-10-03T01:07:27.932Z,18.9
2018-10-03T01:07:40.419Z,18.9
2018-10-03T01:07:52.958Z,18.9
2018-10-03T01:08:05.369Z,18.9
2018-10-03T01:08:17.771Z,18.9
2018-10-03T01:08:30.444Z,18.9
2018-10-03T01:08:42.851Z,18.9
2018-10-03T01:08:55.245Z,18.9
2018-10-03T01:09:07.646Z,18.9
2018-10-03T01:09:20.059Z,18.9
2018-10-03T01:09:32.474Z,18.9
2018-10-03T01:09:44.926Z,18.9
2018-10-03T01:09:57.316Z,11.73
2018-10-03T01:10:09.721Z,11.73
2018-10-03T01:10:22.581Z,11.73
2018-10-03T01:10:35.005Z,11.73
2018-10-03T01:10:47.400Z,11.73
2018-10-03T01:10:59.861Z,11.73
2018-10-03T01:11:12.276Z,11.73
2018-10-03T01:11:24.694Z,11.73
2018-10-03T01:11:37.102Z,11.73
2018-10-03T01:11:49.537Z,11.73
2018-10-03T01:12:01.928Z,11.73
2018-10-03T01:12:14.335Z,11.73
2018-10-03T01:12:26.756Z,11.73
2018-10-03T01:12:39.263Z,11.73
2018-10-03T01:12:51.683Z,11.73
2018-10-03T01:13:04.089Z,11.73
2018-10-03T01:13:16.485Z,11.73
2018-10-03T01:13:28.902Z,11.73
2018-10-03T01:13:41.304Z,11.73
2018-10-03T01:13:53.817Z,11.73
2018-10-03T01:14:06.218Z,11.73
2018-10-03T01:14:18.678Z,11.73
2018-10-03T01:14:31.074Z,11.73
2018-10-03T01:14:43.491Z,11.73
2018-10-03T01:14:55.895Z,11.73
2018-10-03T01:15:08.289Z,11.73
2018-10-03T01:15:20.865Z,11.73
2018-10-03T01:15:33.319Z,11.73
2018-10-03T01:15:45.720Z,11.73
2018-10-03T01:15:58.334Z,11.73
2018-10-03T01:16:10.729Z,11.73
2018-10-03T01:16:23.137Z,11.73
2018-10-03T01:16:36.040Z,11.73
2018-10-03T01:16:48.439Z,11.73
2018-10-03T01:17:00.819Z,11.73
2018-10-03T01:17:13.220Z,11.73
2018-10-03T01:17:25.626Z,11.73
2018-10-03T01:17:38.046Z,11.73
2018-10-03T01:17:50.433Z,11.73
2018-10-03T01:18:02.819Z,11.73
2018-10-03T01:18:15.210Z,11.73
2018-10-03T01:18:27.620Z,11.73
2018-10-03T01:18:40.068Z,11.73
2018-10-03T01:18:52.479Z,11.73
2018-10-03T01:19:04.882Z,11.73
2018-10-03T01:19:17.269Z,11.73
2018-10-03T01:19:29.675Z,11.73
2018-10-03T01:19:42.135Z,11.73
2018-10-03T01:19:54.524Z,11.88
2018-10-03T01:20:06.941Z,11.88
2018-10-03T01:20:19.362Z,11.88
2018-10-03T01:20:31.763Z,11.88
2018-10-03T01:20:44.160Z,11.88
2018-10-03T01:20:56.634Z,11.88
2018-10-03T01:21:09.046Z,11.88
2018-10-03T01:21:21.452Z,11.88
2018-10-03T01:21:33.843Z,11.88
2018-10-03T01:21:46.232Z,11.88
2018-10-03T01:21:58.635Z,11.88
2018-10-03T01:22:11.253Z,11.88
2018-10-03T01:22:23.643Z,11.88
2018-10-03T01:22:36.046Z,11.88
2018-10-03T01:22:48.459Z,11.88
2018-10-03T01:23:00.909Z,11.88
2018-10-03T01:23:13.321Z,11.88
2018-10-03T01:23:25.722Z,11.88
2018-10-03T01:23:38.246Z,11.88
2018-10-03T01:23:50.650Z,11.88
2018-10-03T01:24:03.138Z,11.88
2018-10-03T01:24:15.552Z,11.88
2018-10-03T01:24:27.947Z,11.88
2018-10-03T01:24:40.557Z,11.88
2018-10-03T01:24:53.013Z,11.88
2018-10-03T01:25:05.406Z,11.88
2018-10-03T01:25:17.784Z,11.88
2018-10-03T01:25:30.333Z,11.88
2018-10-03T01:25:42.756Z,11.88
2018-10-03T01:25:55.206Z,11.88
2018-10-03T01:26:07.693Z,11.88
2018-10-03T01:26:20.149Z,11.88
2018-10-03T01:26:32.630Z,11.88
2018-10-03T01:26:45.088Z,11.88
2018-10-03T01:26:57.515Z,11.88
2018-10-03T01:27:09.905Z,11.88
2018-10-03T01:27:22.292Z,11.88
2018-10-03T01:27:34.694Z,11.88
2018-10-03T01:27:47.078Z,11.88
2018-10-03T01:27:59.488Z,11.88
2018-10-03T01:28:11.943Z,11.88
2018-10-03T01:28:24.412Z,11.88
2018-10-03T01:28:36.822Z,11.88
2018-10-03T01:28:49.245Z,11.88
2018-10-03T01:29:01.711Z,11.88
2018-10-03T01:29:14.177Z,11.88
2018-10-03T01:29:26.647Z,11.88
2018-10-03T01:29:39.050Z,11.88
2018-10-03T01:29:51.441Z,11.88
2018-10-03T01:30:03.860Z,14.9
2018-10-03T01:30:16.467Z,14.9
2018-10-03T01:30:28.942Z,14.9
2018-10-03T01:30:41.406Z,14.9
2018-10-03T01:30:53.854Z,14.9
2018-10-03T01:31:06.266Z,14.9
2018-10-03T01:31:18.845Z,14.9
2018-10-03T01:31:31.296Z,14.9
2018-10-03T01:31:43.691Z,14.9
2018-10-03T01:31:56.105Z,14.9
2018-10-03T01:32:08.484Z,14.9
2018-10-03T01:32:20.929Z,14.9
2018-10-03T01:32:33.391Z,14.9
2018-10-03T01:32:45.844Z,14.9
2018-10-03T01:32:58.227Z,14.9
2018-10-03T01:33:10.627Z,14.9
2018-10-03T01:33:23.049Z,14.9
2018-10-03T01:33:35.553Z,14.9
2018-10-03T01:33:48.004Z,14.9
2018-10-03T01:34:00.441Z,14.9
2018-10-03T01:34:12.987Z,14.9
2018-10-03T01:34:25.376Z,14.9
2018-10-03T01:34:37.755Z,14.9
2018-10-03T01:34:50.147Z,14.9
2018-10-03T01:35:02.562Z,14.9
2018-10-03T01:35:14.990Z,14.9
2018-10-03T01:35:27.491Z,14.9
2018-10-03T01:35:39.944Z,14.9
2018-10-03T01:35:52.413Z,14.9
2018-10-03T01:36:04.889Z,14.9
2018-10-03T01:36:17.368Z,14.9
2018-10-03T01:36:29.848Z,14.9
2018-10-03T01:36:42.650Z,14.9
2018-10-03T01:36:55.141Z,14.9
2018-10-03T01:37:08.481Z,14.9
2018-10-03T01:37:20.927Z,14.9
2018-10-03T01:37:33.321Z,14.9
2018-10-03T01:37:45.779Z,14.9
2018-10-03T01:37:58.295Z,14.9
2018-10-03T01:38:10.783Z,14.9
2018-10-03T01:38:23.990Z,14.9
2018-10-03T01:38:37.582Z,14.9
2018-10-03T01:38:50.035Z,14.9
2018-10-03T01:39:02.685Z,14.9
2018-10-03T01:39:15.081Z,14.9
2018-10-03T01:39:27.459Z,14.9
2018-10-03T01:39:39.847Z,14.9
2018-10-03T01:39:52.439Z,14.9
2018-10-03T01:40:04.939Z,12.02
2018-10-03T01:40:17.391Z,12.02
2018-10-03T01:40:29.797Z,12.02
2018-10-03T01:40:42.189Z,12.02
2018-10-03T01:40:54.623Z,12.02
2018-10-03T01:41:07.090Z,12.02
2018-10-03T01:41:19.563Z,12.02
2018-10-03T01:41:32.037Z,12.02
2018-10-03T01:41:44.700Z,12.02
2018-10-03T01:41:57.090Z,12.02
2018-10-03T01:42:09.522Z,12.02
2018-10-03T01:42:21.984Z,12.02
2018-10-03T01:42:35.028Z,12.02
2018-10-03T01:42:47.425Z,12.02
2018-10-03T01:42:59.822Z,12.02
2018-10-03T01:43:12.257Z,12.02
2018-10-03T01:43:24.646Z,12.02
2018-10-03T01:43:37.025Z,12.02
2018-10-03T01:43:49.421Z,12.02
2018-10-03T01:44:01.820Z,12.02
2018-10-03T01:44:14.259Z,12.02
2018-10-03T01:44:26.701Z,12.02
2018-10-03T01:44:39.158Z,12.02
2018-10-03T01:44:51.660Z,12.02
2018-10-03T01:45:04.070Z,12.02
2018-10-03T01:45:16.449Z,12.02
2018-10-03T01:45:28.849Z,12.02
2018-10-03T01:45:41.244Z,12.02
2018-10-03T01:45:53.643Z,12.02
2018-10-03T01:46:06.029Z,12.02
2018-10-03T01:46:18.483Z,12.02
2018-10-03T01:46:30.974Z,12.02
2018-10-03T01:46:43.635Z,12.02
2018-10-03T01:46:56.067Z,12.02
2018-10-03T01:47:08.558Z,12.02
2018-10-03T01:47:20.958Z,12.02
2018-10-03T01:47:33.374Z,12.02
2018-10-03T01:47:45.763Z,12.02
2018-10-03T01:47:58.140Z,12.02
2018-10-03T01:48:10.648Z,12.02
2018-10-03T01:48:23.116Z,12.02
2018-10-03T01:48:35.550Z,12.02
2018-10-03T01:48:48.023Z,12.02
2018-10-03T01:49:00.465Z,12.02
2018-10-03T01:49:12.955Z,12.02
2018-10-03T01:49:25.490Z,12.02
2018-10-03T01:49:37.961Z,12.02
2018-10-03T01:49:50.438Z,12.02
2018-10-03T01:50:02.903Z,9.3
2018-10-03T01:50:15.387Z,9.3
2018-10-03T01:50:27.814Z,9.3
2018-10-03T01:50:40.274Z,9.3
2018-10-03T01:50:52.750Z,9.3
2018-10-03T01:51:05.223Z,9.3
2018-10-03T01:51:17.693Z,9.3
2018-10-03T01:51:30.190Z,9.3
2018-10-03T01:51:42.663Z,9.3
2018-10-03T01:51:55.143Z,9.3
2018-10-03T01:52:07.586Z,9.3
2018-10-03T01:52:19.982Z,9.3
2018-10-03T01:52:32.449Z,9.3
2018-10-03T01:52:44.850Z,9.3
2018-10-03T01:52:57.247Z,9.3
2018-10-03T01:53:09.643Z,9.3
2018-10-03T01:53:22.056Z,9.3
2018-10-03T01:53:34.450Z,9.3
2018-10-03T01:53:46.848Z,9.3
2018-10-03T01:53:59.244Z,9.3
2018-10-03T01:54:11.723Z,9.3
2018-10-03T01:54:24.244Z,9.3
2018-10-03T01:54:36.635Z,9.3
2018-10-03T01:54:49.036Z,9.3
2018-10-03T01:55:01.450Z,9.3
2018-10-03T01:55:13.865Z,9.3
2018-10-03T01:55:26.271Z,9.3
2018-10-03T01:55:38.650Z,9.3
2018-10-03T01:55:51.070Z,9.3
2018-10-03T01:56:03.449Z,9.3
2018-10-03T01:56:15.839Z,9.3
2018-10-03T01:56:28.227Z,9.3
2018-10-03T01:56:40.617Z,9.3
2018-10-03T01:56:53.020Z,9.3
2018-10-03T01:57:05.420Z,9.3
2018-10-03T01:57:17.822Z,9.3
2018-10-03T01:57:30.284Z,9.3
2018-10-03T01:57:42.668Z,9.3
2018-10-03T01:57:55.091Z,9.3
2018-10-03T01:58:07.564Z,9.3
2018-10-03T01:58:20.050Z,9.3
2018-10-03T01:58:32.536Z,9.3
2018-10-03T01:58:45.013Z,9.3
2018-10-03T01:58:57.495Z,9.3
2018-10-03T01:59:09.905Z,9.3
2018-10-03T01:59:22.610Z,9.3
2018-10-03T01:59:35.697Z,9.3
2018-10-03T01:59:48.149Z,9.3
2018-10-03T02:00:00.644Z,12.87
2018-10-03T02:00:13.252Z,12.87
2018-10-03T02:00:25.718Z,12.87
2018-10-03T02:00:38.149Z,12.87
2018-10-03T02:00:50.612Z,12.87
2018-10-03T02:01:03.032Z,12.87
2018-10-03T02:01:15.476Z,12.87
2018-10-03T02:01:27.908Z,12.87
2018-10-03T02:01:40.344Z,12.87
2018-10-03T02:01:52.836Z,12.87
2018-10-03T02:02:05.338Z,12.87
2018-10-03T02:02:17.764Z,12.87
2018-10-03T02:02:30.163Z,12.87
2018-10-03T02:02:42.638Z,12.87
2018-10-03T02:02:55.086Z,12.87
2018-10-03T02:03:07.511Z,12.87
2018-10-03T02:03:19.927Z,12.87
2018-10-03T02:03:32.326Z,12.87
2018-10-03T02:03:44.739Z,12.87
2018-10-03T02:03:57.233Z,12.87
2018-10-03T02:04:09.647Z,12.87
2018-10-03T02:04:22.107Z,12.87
2018-10-03T02:04:34.532Z,12.87
2018-10-03T02:04:47.016Z,12.87
2018-10-03T02:04:59.401Z,12.87
2018-10-03T02:05:11.841Z,12.87
2018-10-03T02:05:24.259Z,12.87
2018-10-03T02:05:36.659Z,12.87
2018-10-03T02:05:49.054Z,12.87
2018-10-03T02:06:01.461Z,12.87
2018-10-03T02:06:14.168Z,12.87
2018-10-03T02:06:26.548Z,12.87
2018-10-03T02:06:38.937Z,12.87
2018-10-03T02:06:51.337Z,12.87
2018-10-03T02:07:03.738Z,12.87
2018-10-03T02:07:16.151Z,12.87
2018-10-03T02:07:28.546Z,12.87
2018-10-03T02:07:40.948Z,12.87
2018-10-03T02:07:53.327Z,12.87
2018-10-03T02:08:05.801Z,12.87
2018-10-03T02:08:18.226Z,12.87
2018-10-03T02:08:30.778Z,12.87
2018-10-03T02:08:43.175Z,12.87
2018-10-03T02:08:55.619Z,12.87
2018-10-03T02:09:08.006Z,12.87
2018-10-03T02:09:20.412Z,12.87
2018-10-03T02:09:32.823Z,12.87
2018-10-03T02:09:45.232Z,12.87
2018-10-03T02:09:57.665Z,9.2
2018-10-03T02:10:10.083Z,9.2
2018-10-03T02:10:22.577Z,9.2
2018-10-03T02:10:34.984Z,9.2
2018-10-03T02:10:47.392Z,9.2
2018-10-03T02:10:59.806Z,9.2
2018-10-03T02:11:12.224Z,9.2
2018-10-03T02:11:24.653Z,9.2
2018-10-03T02:11:37.052Z,9.2
2018-10-03T02:11:49.439Z,9.2
2018-10-03T02:12:01.839Z,9.2
2018-10-03T02:12:14.292Z,9.2
2018-10-03T02:12:26.693Z,9.2
2018-10-03T02:12:39.268Z,9.2
2018-10-03T02:12:51.697Z,9.2
2018-10-03T02:13:04.094Z,9.2
2018-10-03T02:13:16.489Z,9.2
2018-10-03T02:13:28.901Z,9.2
2018-10-03T02:13:41.290Z,9.2
2018-10-03T02:13:53.713Z,9.2
2018-10-03T02:14:06.134Z,9.2
2018-10-03T02:14:18.583Z,9.2
2018-10-03T02:14:31.062Z,9.2
2018-10-03T02:14:44.006Z,9.2
2018-10-03T02:14:57.379Z,9.2
2018-10-03T02:15:09.807Z,9.2
2018-10-03T02:15:22.232Z,9.2
2018-10-03T02:15:34.693Z,9.2
2018-10-03T02:15:47.114Z,9.2
2018-10-03T02:15:59.695Z,9.2
2018-10-03T02:16:12.096Z,9.2
2018-10-03T02:16:24.548Z,9.2
2018-10-03T02:16:36.959Z,9.2
2018-10-03T02:16:49.451Z,9.2
2018-10-03T02:17:02.117Z,9.2
2018-10-03T02:17:14.708Z,9.2
2018-10-03T02:17:27.118Z,9.2
2018-10-03T02:17:39.564Z,9.2
2018-10-03T02:17:51.965Z,9.2
2018-10-03T02:18:04.385Z,9.2
2018-10-03T02:18:16.815Z,9.2
2018-10-03T02:18:29.231Z,9.2
2018-10-03T02:18:41.710Z,9.2
2018-10-03T02:18:54.109Z,9.2
2018-10-03T02:19:06.506Z,9.2
2018-10-03T02:19:18.905Z,9.2
2018-10-03T02:19:31.324Z,9.2
2018-10-03T02:19:43.719Z,9.2
2018-10-03T02:19:56.123Z,9.2
2018-10-03T02:20:08.542Z,11.55
2018-10-03T02:20:20.968Z,11.55
2018-10-03T02:20:33.401Z,11.55
2018-10-03T02:20:45.814Z,11.55
2018-10-03T02:20:58.240Z,11.55
2018-10-03T02:21:10.641Z,11.55
2018-10-03T02:21:23.059Z,11.55
2018-10-03T02:21:35.491Z,11.55
2018-10-03T02:21:48.192Z,11.55
2018-10-03T02:22:00.619Z,11.55
2018-10-03T02:22:13.020Z,11.55
2018-10-03T02:22:25.467Z,11.55
2018-10-03T02:22:37.993Z,11.55
2018-10-03T02:22:50.409Z,11.55
2018-10-03T02:23:02.800Z,11.55
2018-10-03T02:23:15.206Z,11.55
2018-10-03T02:23:27.664Z,11.55
2018-10-03T02:23:40.202Z,11.55
2018-10-03T02:23:52.727Z,11.55
2018-10-03T02:24:05.132Z,11.55
2018-10-03T02:24:17.543Z,11.55
2018-10-03T02:24:29.975Z,11.55
2018-10-03T02:24:42.440Z,11.55
2018-10-03T02:24:54.858Z,11.55
2018-10-03T02:25:07.270Z,11.55
2018-10-03T02:25:19.676Z,11.55
2018-10-03T02:25:32.077Z,11.55
2018-10-03T02:25:44.479Z,11.55
2018-10-03T02:25:56.865Z,11.55
2018-10-03T02:26:09.252Z,11.55
2018-10-03T02:26:21.632Z,11.55
2018-10-03T02:26:34.012Z,11.55
2018-10-03T02:26:46.828Z,11.55
2018-10-03T02:26:59.248Z,11.55
2018-10-03T02:27:11.684Z,11.55
2018-10-03T02:27:24.081Z,11.55
2018-10-03T02:27:36.475Z,11.55
2018-10-03T02:27:48.868Z,11.55
2018-10-03T02:28:01.259Z,11.55
2018-10-03T02:28:13.643Z,11.55
2018-10-03T02:28:26.050Z,11.55
2018-10-03T02:28:38.447Z,11.55
2018-10-03T02:28:50.854Z,11.55
2018-10-03T02:29:03.258Z,11.55
2018-10-03T02:29:15.663Z,11.55
2018-10-03T02:29:28.053Z,11.55
2018-10-03T02:29:40.446Z,11.55
2018-10-03T02:29:52.842Z,11.55
2018-10-03T02:30:05.312Z,10.65
2018-10-03T02:30:17.844Z,10.65
2018-10-03T02:30:30.293Z,10.65
2018-10-03T02:30:42.729Z,10.65
2018-10-03T02:30:55.274Z,10.65
2018-10-03T02:31:07.753Z,10.65
2018-10-03T02:31:20.324Z,10.65
2018-10-03T02:31:32.722Z,10.65
2018-10-03T02:31:45.186Z,10.65
2018-10-03T02:31:57.592Z,10.65
2018-10-03T02:32:09.987Z,10.65
2018-10-03T02:32:22.422Z,10.65
2018-10-03T02:32:34.845Z,10.65
2018-10-03T02:32:47.269Z,10.65
2018-10-03T02:32:59.670Z,10.65
2018-10-03T02:33:12.065Z,10.65
2018-10-03T02:33:24.490Z,10.65
2018-10-03T02:33:36.878Z,10.65
2018-10-03T02:33:49.283Z,10.65
2018-10-03T02:34:01.679Z,10.65
2018-10-03T02:34:14.218Z,10.65
2018-10-03T02:34:26.674Z,10.65
2018-10-03T02:34:39.104Z,10.65
2018-10-03T02:34:51.725Z,10.65
2018-10-03T02:35:04.177Z,10.65
2018-10-03T02:35:16.647Z,10.65
2018-10-03T02:35:29.244Z,10.65
2018-10-03T02:35:41.709Z,10.65
2018-10-03T02:35:54.129Z,10.65
2018-10-03T02:36:06.545Z,10.65
2018-10-03T02:36:18.954Z,10.65
2018-10-03T02:36:31.408Z,10.65
2018-10-03T02:36:43.994Z,10.65
2018-10-03T02:36:56.454Z,10.65
2018-10-03T02:37:08.982Z,10.65
2018-10-03T02:37:21.392Z,10.65
2018-10-03T02:37:33.832Z,10.65
2018-10-03T02:37:46.364Z,10.65
2018-10-03T02:37:58.793Z,10.65
2018-10-03T02:38:11.238Z,10.65
2018-10-03T02:38:23.674Z,10.65
2018-10-03T02:38:36.123Z,10.65
2018-10-03T02:38:48.555Z,10.65
2018-10-03T02:39:00.951Z,10.65
2018-10-03T02:39:13.382Z,10.65
2018-10-03T02:39:25.816Z,10.65
2018-10-03T02:39:38.324Z,10.65
2018-10-03T02:39:50.835Z,10.65
2018-10-03T02:40:03.288Z,12.43
2018-10-03T02:40:16.110Z,12.43
2018-10-03T02:40:28.535Z,12.43
2018-10-03T02:40:40.978Z,12.43
2018-10-03T02:40:53.393Z,12.43
2018-10-03T02:41:05.814Z,12.43
2018-10-03T02:41:18.227Z,12.43
2018-10-03T02:41:30.626Z,12.43
2018-10-03T02:41:43.035Z,12.43
2018-10-03T02:41:55.451Z,12.43
2018-10-03T02:42:07.860Z,12.43
2018-10-03T02:42:20.285Z,12.43
2018-10-03T02:42:33.233Z,12.43